Time;durP1;ratioP1;P1;durP2;ratioP2;P2;SDS_P1;SDS_P2;PMS_P1;PMS_P2;Temp;Humidity;BMP_temperature;BMP_pressure;BME280_temperature;BME280_humidity;BME280_pressure;Samples;Min_cycle;Max_cycle;Signal;HPM_P1;HPM_P2
2021/10/15 00:01:18;;;;;;;24.52;22.98;;;7.60;93.10;;;;;;5028465;28;20225;-70
2021/10/15 00:03:45;;;;;;;25.40;23.60;;;7.50;92.90;;;;;;5023834;28;20208;-70
2021/10/15 00:06:12;;;;;;;25.42;23.60;;;7.60;92.60;;;;;;5028783;28;20207;-70
2021/10/15 00:08:39;;;;;;;25.88;24.17;;;7.50;92.60;;;;;;5027082;28;20284;-70
2021/10/15 00:11:08;;;;;;;25.58;23.90;;;7.50;92.70;;;;;;5028737;28;20218;-70
2021/10/15 00:13:34;;;;;;;26.20;24.25;;;7.40;92.70;;;;;;5027928;28;20221;-70
2021/10/15 00:16:01;;;;;;;26.52;24.83;;;7.50;92.70;;;;;;5028094;28;20583;-70
2021/10/15 00:18:28;;;;;;;26.25;24.55;;;7.40;92.50;;;;;;5026649;28;20582;-69
2021/10/15 00:20:55;;;;;;;26.23;24.73;;;7.40;92.70;;;;;;5028252;28;20257;-69
2021/10/15 00:23:22;;;;;;;26.08;24.45;;;7.40;92.70;;;;;;5027532;28;20266;-69
2021/10/15 00:25:49;;;;;;;26.90;25.23;;;7.30;92.70;;;;;;5026690;28;20670;-69
2021/10/15 00:28:17;;;;;;;26.20;24.33;;;7.30;92.80;;;;;;5028270;28;20219;-69
2021/10/15 00:30:44;;;;;;;27.10;24.65;;;7.20;92.90;;;;;;5027996;28;20201;-69
2021/10/15 00:33:11;;;;;;;26.25;24.45;;;7.20;92.80;;;;;;5026561;28;20200;-69
2021/10/15 00:35:38;;;;;;;26.65;25.05;;;7.20;92.70;;;;;;5027871;28;20297;-69
2021/10/15 00:38:05;;;;;;;26.60;24.85;;;7.20;92.90;;;;;;5027368;28;20210;-69
2021/10/15 00:40:31;;;;;;;26.50;24.85;;;7.30;93.60;;;;;;5030508;28;20220;-69
2021/10/15 00:42:58;;;;;;;27.30;25.50;;;7.20;93.70;;;;;;5027395;28;20288;-69
2021/10/15 00:45:27;;;;;;;28.67;26.52;;;7.20;94.10;;;;;;5028315;28;20196;-69
2021/10/15 00:47:54;;;;;;;27.98;25.90;;;7.20;93.70;;;;;;5027660;28;20200;-69
2021/10/15 00:50:20;;;;;;;27.65;25.63;;;7.10;93.80;;;;;;5026788;28;20200;-69
2021/10/15 00:52:48;;;;;;;27.60;25.52;;;7.20;94.00;;;;;;5026643;28;20207;-69
2021/10/15 00:55:15;;;;;;;27.23;25.23;;;7.20;94.30;;;;;;5026879;28;20218;-69
2021/10/15 00:57:42;;;;;;;27.20;25.23;;;7.20;95.10;;;;;;5027927;28;20749;-69
2021/10/15 01:00:09;;;;;;;25.92;24.33;;;7.10;94.30;;;;;;5024295;28;20201;-69
2021/10/15 01:02:38;;;;;;;25.27;23.67;;;7.10;93.90;;;;;;5026521;28;20275;-69
2021/10/15 01:05:06;;;;;;;26.52;24.65;;;7.10;93.60;;;;;;5022016;28;20533;-69
2021/10/15 01:07:33;;;;;;;26.35;24.42;;;7.10;93.30;;;;;;5025423;28;20659;-70
2021/10/15 01:10:00;;;;;;;26.90;24.75;;;7.10;93.80;;;;;;5026195;28;20201;-70
2021/10/15 01:12:27;;;;;;;26.45;24.55;;;7.10;94.40;;;;;;5027844;28;20559;-69
2021/10/15 01:14:54;;;;;;;26.40;24.70;;;7.00;93.80;;;;;;5024928;28;20294;-70
2021/10/15 01:17:22;;;;;;;26.70;24.83;;;7.00;93.60;;;;;;5028056;28;20205;-70
2021/10/15 01:19:54;;;;;;;25.25;23.75;;;7.00;93.40;;;;;;5020928;28;20236;-70
2021/10/15 01:22:21;;;;;;;26.00;24.30;;;7.00;93.30;;;;;;5032210;28;20223;-70
2021/10/15 01:24:47;;;;;;;26.35;24.65;;;7.00;93.80;;;;;;5027981;28;20201;-70
2021/10/15 01:27:14;;;;;;;25.73;24.02;;;7.00;94.00;;;;;;5019366;28;20200;-70
2021/10/15 01:29:41;;;;;;;26.27;24.45;;;7.00;93.40;;;;;;5026740;28;20198;-70
2021/10/15 01:32:09;;;;;;;26.25;24.55;;;7.00;93.00;;;;;;5026741;28;20209;-70
2021/10/15 01:34:37;;;;;;;25.30;23.77;;;7.00;92.70;;;;;;5025975;28;20288;-70
2021/10/15 01:37:06;;;;;;;25.17;23.70;;;7.00;92.70;;;;;;5025652;28;20287;-70
2021/10/15 01:39:33;;;;;;;25.98;24.27;;;7.00;92.80;;;;;;5026292;28;20207;-69
2021/10/15 01:42:00;;;;;;;25.50;23.75;;;6.90;93.10;;;;;;5022059;28;20229;-70
2021/10/15 01:44:27;;;;;;;26.52;24.65;;;6.90;93.10;;;;;;5026663;28;20219;-70
2021/10/15 01:46:54;;;;;;;26.98;25.15;;;6.80;93.30;;;;;;5026412;28;20670;-70
2021/10/15 01:49:21;;;;;;;25.05;23.60;;;6.70;93.30;;;;;;5029334;28;20218;-70
2021/10/15 01:51:48;;;;;;;25.25;23.65;;;6.70;93.50;;;;;;5029594;28;20311;-70
2021/10/15 01:54:16;;;;;;;26.90;25.13;;;6.70;94.60;;;;;;5030427;28;20204;-70
2021/10/15 01:56:43;;;;;;;26.02;24.30;;;6.80;94.30;;;;;;5028767;28;20563;-70
2021/10/15 01:59:10;;;;;;;25.88;24.27;;;6.80;94.10;;;;;;5032835;28;20208;-70
2021/10/15 02:01:37;;;;;;;26.17;24.38;;;6.70;93.90;;;;;;5034084;28;20227;-70
2021/10/15 02:04:04;;;;;;;26.55;24.85;;;6.70;93.70;;;;;;5030028;28;20238;-70
2021/10/15 02:06:31;;;;;;;26.33;24.73;;;6.70;93.60;;;;;;5024247;28;20549;-70
2021/10/15 02:08:58;;;;;;;28.13;25.80;;;6.70;94.20;;;;;;5028106;28;20255;-70
2021/10/15 02:11:26;;;;;;;29.00;27.00;;;6.70;94.40;;;;;;5027392;28;20216;-69
2021/10/15 02:13:53;;;;;;;26.40;24.60;;;6.70;94.70;;;;;;5030690;28;20208;-69
2021/10/15 02:16:19;;;;;;;26.00;24.20;;;6.70;94.10;;;;;;5030268;28;20321;-69
2021/10/15 02:18:46;;;;;;;26.60;24.90;;;6.70;93.80;;;;;;5029632;28;20200;-69
2021/10/15 02:21:13;;;;;;;26.95;25.20;;;6.60;93.60;;;;;;5028171;28;20230;-69
2021/10/15 02:23:40;;;;;;;26.20;24.60;;;6.60;94.50;;;;;;5025292;28;20192;-69
2021/10/15 02:26:07;;;;;;;27.98;25.88;;;6.50;95.50;;;;;;5025231;28;20200;-69
2021/10/15 02:28:35;;;;;;;27.45;25.65;;;6.60;96.00;;;;;;5023578;28;20207;-69
2021/10/15 02:31:02;;;;;;;26.90;25.10;;;6.60;95.50;;;;;;5026980;28;20531;-69
2021/10/15 02:33:29;;;;;;;28.20;26.23;;;6.60;95.20;;;;;;5030226;28;20201;-69
2021/10/15 02:35:56;;;;;;;26.35;24.67;;;6.50;94.80;;;;;;5029753;28;20214;-69
2021/10/15 02:38:23;;;;;;;26.65;24.77;;;6.50;94.60;;;;;;5037734;28;20204;-69
2021/10/15 02:40:49;;;;;;;28.33;26.52;;;6.50;94.10;;;;;;5026178;28;20224;-69
2021/10/15 02:43:16;;;;;;;26.00;24.20;;;6.50;94.10;;;;;;5029383;28;20284;-69
2021/10/15 02:45:45;;;;;;;25.85;24.10;;;6.50;94.10;;;;;;5028376;28;20585;-69
2021/10/15 02:48:11;;;;;;;26.17;24.27;;;6.40;94.10;;;;;;5030221;28;20211;-69
2021/10/15 02:50:39;;;;;;;25.10;23.45;;;6.40;94.30;;;;;;5028183;28;20578;-69
2021/10/15 02:53:06;;;;;;;26.50;24.70;;;6.40;94.30;;;;;;5027571;28;20219;-69
2021/10/15 02:55:33;;;;;;;27.33;25.42;;;6.40;95.50;;;;;;5028480;28;20690;-69
2021/10/15 02:58:00;;;;;;;28.38;26.58;;;6.50;96.20;;;;;;5028926;28;20299;-69
2021/10/15 03:00:27;;;;;;;26.30;24.52;;;6.50;96.70;;;;;;5029070;28;21821;-69
2021/10/15 03:02:56;;;;;;;26.35;24.42;;;6.50;95.60;;;;;;5030532;28;20216;-69
2021/10/15 03:05:23;;;;;;;25.23;23.63;;;6.40;95.10;;;;;;5029210;28;20204;-69
2021/10/15 03:07:50;;;;;;;26.58;24.50;;;6.40;94.90;;;;;;5029034;28;20207;-69
2021/10/15 03:10:17;;;;;;;25.70;23.90;;;6.40;94.90;;;;;;5029402;28;20208;-68
2021/10/15 03:12:44;;;;;;;27.70;25.77;;;6.40;95.60;;;;;;5027908;28;20291;-69
2021/10/15 03:15:10;;;;;;;27.88;25.80;;;6.40;95.40;;;;;;5029778;28;20235;-69
2021/10/15 03:17:37;;;;;;;28.17;26.27;;;6.40;94.90;;;;;;5028226;28;20201;-69
2021/10/15 03:20:07;;;;;;;27.70;25.90;;;6.40;94.60;;;;;;5028871;28;20200;-68
2021/10/15 03:22:34;;;;;;;25.58;23.70;;;6.40;94.50;;;;;;5021871;28;20252;-69
2021/10/15 03:25:01;;;;;;;27.35;25.55;;;6.40;94.10;;;;;;5027103;28;20569;-69
2021/10/15 03:27:28;;;;;;;25.63;23.88;;;6.40;94.00;;;;;;5027931;28;20200;-69
2021/10/15 03:29:55;;;;;;;27.45;25.52;;;6.40;94.00;;;;;;5028329;28;20202;-69
2021/10/15 03:32:22;;;;;;;27.10;25.40;;;6.30;94.10;;;;;;5023894;28;20221;-69
2021/10/15 03:34:49;;;;;;;27.88;25.98;;;6.30;94.00;;;;;;5028824;28;20210;-69
2021/10/15 03:37:17;;;;;;;27.55;25.55;;;6.30;93.90;;;;;;5027699;28;20207;-69
2021/10/15 03:39:44;;;;;;;27.52;25.83;;;6.30;93.80;;;;;;5029886;28;20205;-69
2021/10/15 03:42:11;;;;;;;27.63;25.73;;;6.30;93.50;;;;;;5026859;28;20703;-69
2021/10/15 03:44:38;;;;;;;30.60;28.55;;;6.30;93.50;;;;;;5027550;28;20722;-69
2021/10/15 03:47:05;;;;;;;27.45;25.65;;;6.30;93.60;;;;;;5026456;28;20206;-69
2021/10/15 03:49:31;;;;;;;28.27;26.40;;;6.30;93.70;;;;;;5029083;28;20781;-69
2021/10/15 03:51:58;;;;;;;27.67;25.65;;;6.30;93.60;;;;;;5027172;28;20582;-69
2021/10/15 03:54:27;;;;;;;27.48;25.67;;;6.30;93.40;;;;;;5027575;28;20210;-69
2021/10/15 03:56:54;;;;;;;29.05;26.95;;;6.30;93.70;;;;;;5026144;28;20204;-69
2021/10/15 03:59:20;;;;;;;26.90;25.10;;;6.30;93.30;;;;;;5028582;28;20200;-69
2021/10/15 04:01:47;;;;;;;26.52;24.83;;;6.40;93.20;;;;;;5027127;28;20222;-69
2021/10/15 04:04:14;;;;;;;27.10;25.10;;;6.30;93.30;;;;;;5028966;28;20689;-68
2021/10/15 04:06:41;;;;;;;28.23;26.35;;;6.30;93.30;;;;;;5028526;28;20201;-69
2021/10/15 04:09:08;;;;;;;27.83;25.70;;;6.30;93.30;;;;;;5029783;28;20700;-69
2021/10/15 04:11:37;;;;;;;26.00;24.40;;;6.20;93.30;;;;;;5028265;28;20315;-69
2021/10/15 04:14:03;;;;;;;29.75;27.63;;;6.20;93.70;;;;;;5028683;28;20207;-69
2021/10/15 04:16:30;;;;;;;29.65;27.73;;;6.20;93.60;;;;;;5030109;28;20227;-69
2021/10/15 04:18:57;;;;;;;27.42;25.52;;;6.20;93.50;;;;;;5034566;28;20195;-69
2021/10/15 04:21:24;;;;;;;27.70;25.83;;;6.20;93.50;;;;;;5028079;28;20568;-69
2021/10/15 04:23:51;;;;;;;27.35;25.35;;;6.20;93.60;;;;;;5027887;28;20331;-69
2021/10/15 04:26:18;;;;;;;28.92;27.02;;;6.30;93.40;;;;;;5025346;28;20545;-69
2021/10/15 04:28:46;;;;;;;28.00;26.15;;;6.30;93.20;;;;;;5028104;28;20203;-69
2021/10/15 04:31:14;;;;;;;28.83;26.75;;;6.30;93.20;;;;;;5026038;28;20234;-69
2021/10/15 04:33:41;;;;;;;27.33;25.52;;;6.30;93.30;;;;;;5026288;28;20614;-69
2021/10/15 04:36:07;;;;;;;28.48;26.42;;;6.30;93.20;;;;;;5028153;28;20204;-69
2021/10/15 04:38:34;;;;;;;26.77;25.10;;;6.30;93.20;;;;;;5027062;28;20283;-69
2021/10/15 04:41:01;;;;;;;26.83;25.13;;;6.30;93.70;;;;;;5026757;28;20311;-69
2021/10/15 04:43:30;;;;;;;29.05;27.10;;;6.30;93.70;;;;;;5026080;28;20211;-69
2021/10/15 04:45:58;;;;;;;28.63;26.70;;;6.30;93.90;;;;;;5027611;28;20218;-69
2021/10/15 04:48:25;;;;;;;27.58;25.67;;;6.30;94.00;;;;;;5026998;28;20208;-69
2021/10/15 04:50:52;;;;;;;29.30;27.40;;;6.30;93.80;;;;;;5027866;28;20438;-69
2021/10/15 04:53:19;;;;;;;27.23;25.30;;;6.40;94.00;;;;;;5024798;28;20192;-69
2021/10/15 04:55:46;;;;;;;29.38;27.08;;;6.40;94.40;;;;;;5027501;28;20231;-69
2021/10/15 04:58:12;;;;;;;27.60;25.90;;;6.40;94.30;;;;;;5025800;28;20527;-69
2021/10/15 05:00:39;;;;;;;29.58;27.70;;;6.40;96.00;;;;;;5027498;28;20223;-69
2021/10/15 05:03:08;;;;;;;29.27;27.10;;;6.40;94.90;;;;;;5019638;28;20685;-69
2021/10/15 05:05:35;;;;;;;30.40;28.45;;;6.40;94.20;;;;;;5027421;28;20201;-69
2021/10/15 05:08:02;;;;;;;29.00;26.98;;;6.40;93.70;;;;;;5027408;28;20651;-69
2021/10/15 05:10:29;;;;;;;29.55;27.73;;;6.40;93.40;;;;;;5027135;28;20194;-69
2021/10/15 05:12:56;;;;;;;29.83;27.83;;;6.50;94.80;;;;;;5025441;28;20235;-69
2021/10/15 05:15:24;;;;;;;28.27;26.17;;;6.40;94.30;;;;;;5025981;28;20670;-69
2021/10/15 05:17:51;;;;;;;26.80;25.13;;;6.40;93.80;;;;;;5026409;28;20196;-69
2021/10/15 05:20:20;;;;;;;29.17;27.20;;;6.40;93.30;;;;;;5026723;28;20400;-69
2021/10/15 05:22:47;;;;;;;25.98;24.27;;;6.40;93.20;;;;;;5025956;28;20215;-69
2021/10/15 05:25:15;;;;;;;28.50;26.70;;;6.40;93.20;;;;;;5027367;28;20398;-69
2021/10/15 05:27:42;;;;;;;31.73;28.20;;;6.40;93.20;;;;;;5023835;28;20205;-69
2021/10/15 05:30:10;;;;;;;28.17;26.20;;;6.40;93.60;;;;;;5026950;28;20203;-69
2021/10/15 05:32:38;;;;;;;28.13;26.02;;;6.30;94.00;;;;;;5031890;28;20308;-69
2021/10/15 05:35:06;;;;;;;29.17;27.17;;;6.40;93.80;;;;;;5026789;28;20296;-69
2021/10/15 05:37:35;;;;;;;28.40;26.55;;;6.30;93.30;;;;;;5025264;28;20590;-69
2021/10/15 05:40:02;;;;;;;28.95;27.15;;;6.40;93.10;;;;;;5025051;28;20619;-69
2021/10/15 05:42:29;;;;;;;29.23;27.23;;;6.50;93.20;;;;;;5025884;28;20733;-68
2021/10/15 05:44:56;;;;;;;28.23;26.42;;;6.50;92.30;;;;;;5022168;28;20228;-68
2021/10/15 05:47:25;;;;;;;28.20;26.30;;;6.50;92.40;;;;;;5027904;28;20227;-69
2021/10/15 05:49:52;;;;;;;29.10;27.13;;;6.50;92.80;;;;;;5026618;28;20216;-69
2021/10/15 05:52:28;;;;;;;27.15;25.35;;;6.50;92.80;;;;;;5027292;28;20310;-70
2021/10/15 05:55:00;;;;;;;29.25;27.13;;;6.50;92.60;;;;;;5025379;28;20733;-70
2021/10/15 06:00:17;;;;;;;29.88;27.98;;;6.60;92.30;;;;;;5025411;28;20694;-70
2021/10/15 06:02:45;;;;;;;28.98;27.08;;;6.60;92.20;;;;;;5023755;28;20835;-72
2021/10/15 06:16:28;;;;;;;28.75;26.80;;;6.70;91.30;;;;;;5022147;28;20231;-71
2021/10/15 06:18:58;;;;;;;28.80;26.80;;;6.70;92.80;;;;;;5022593;28;20248;-71
2021/10/15 06:21:28;;;;;;;28.65;26.67;;;6.80;92.60;;;;;;5027201;28;20227;-72
2021/10/15 06:23:55;;;;;;;28.20;26.35;;;6.90;92.10;;;;;;5024363;28;20323;-72
2021/10/15 06:26:23;;;;;;;28.10;26.10;;;6.90;91.80;;;;;;5026632;28;20664;-69
2021/10/15 06:28:50;;;;;;;28.15;26.25;;;7.00;90.80;;;;;;5024599;28;20197;-73
2021/10/15 06:31:17;;;;;;;29.85;28.02;;;7.00;90.50;;;;;;5027596;28;20217;-70
2021/10/15 06:33:44;;;;;;;29.95;28.05;;;6.90;90.00;;;;;;5020048;28;20193;-70
2021/10/15 06:36:11;;;;;;;26.92;25.23;;;7.00;90.30;;;;;;5027250;28;20209;-71
2021/10/15 06:38:38;;;;;;;29.50;27.25;;;7.00;90.30;;;;;;5025572;28;20528;-70
2021/10/15 06:41:05;;;;;;;27.90;26.08;;;7.10;90.30;;;;;;5022608;28;20227;-70
2021/10/15 06:43:33;;;;;;;28.05;26.17;;;7.20;90.10;;;;;;5027494;28;20226;-71
2021/10/15 06:46:00;;;;;;;27.48;25.50;;;7.30;89.80;;;;;;5025170;28;20193;-71
2021/10/15 06:48:27;;;;;;;27.60;25.85;;;7.40;89.80;;;;;;5031618;28;20993;-71
2021/10/15 06:50:55;;;;;;;28.83;27.13;;;7.50;89.50;;;;;;5029687;28;20263;-71
2021/10/15 06:53:22;;;;;;;30.92;28.27;;;7.60;89.10;;;;;;5028869;28;20240;-71
2021/10/15 06:55:49;;;;;;;29.98;27.75;;;7.60;88.70;;;;;;5029487;28;20204;-71
2021/10/15 06:58:17;;;;;;;28.08;26.02;;;7.70;88.70;;;;;;5027732;28;20209;-76
2021/10/15 07:00:45;;;;;;;31.30;29.38;;;7.70;88.30;;;;;;5029070;28;20217;-70
2021/10/15 07:03:15;;;;;;;27.70;25.90;;;7.80;88.00;;;;;;5024070;28;20231;-70
2021/10/15 07:05:42;;;;;;;27.00;25.35;;;7.90;87.80;;;;;;5029194;28;20220;-70
2021/10/15 07:08:09;;;;;;;26.42;24.63;;;8.10;87.60;;;;;;5028428;28;20288;-70
2021/10/15 07:10:36;;;;;;;26.63;24.83;;;8.20;87.20;;;;;;5028121;28;20235;-70
2021/10/15 07:13:03;;;;;;;29.00;27.20;;;8.30;86.90;;;;;;5027330;28;20190;-70
2021/10/15 07:15:30;;;;;;;28.38;26.50;;;8.30;86.90;;;;;;5029486;28;20197;-70
2021/10/15 07:18:00;;;;;;;27.55;25.75;;;8.40;86.70;;;;;;5028575;28;20280;-70
2021/10/15 07:20:28;;;;;;;36.08;31.92;;;8.60;86.40;;;;;;5029864;28;20206;-70
2021/10/15 07:22:55;;;;;;;31.08;28.75;;;8.60;86.40;;;;;;5024385;28;20225;-70
2021/10/15 07:25:22;;;;;;;28.35;26.55;;;8.80;86.30;;;;;;5025366;28;20677;-70
2021/10/15 07:27:49;;;;;;;30.10;27.70;;;9.00;85.90;;;;;;5027623;28;20214;-70
2021/10/15 07:30:16;;;;;;;29.27;27.25;;;9.10;85.50;;;;;;5029140;28;20204;-70
2021/10/15 07:32:43;;;;;;;30.25;28.27;;;9.20;84.90;;;;;;5022109;28;20192;-69
2021/10/15 07:35:12;;;;;;;28.40;26.63;;;9.40;84.70;;;;;;5026709;28;20228;-70
2021/10/15 07:37:39;;;;;;;28.70;26.80;;;9.50;83.70;;;;;;5027935;28;20446;-70
2021/10/15 07:40:08;;;;;;;29.35;27.13;;;9.70;83.20;;;;;;5028394;28;20201;-70
2021/10/15 07:42:35;;;;;;;29.30;27.50;;;9.80;82.80;;;;;;5027730;28;20682;-70
2021/10/15 07:45:01;;;;;;;27.33;25.30;;;9.90;82.70;;;;;;5026257;28;20491;-70
2021/10/15 07:47:28;;;;;;;29.57;27.43;;;10.00;82.40;;;;;;5023793;28;21374;-70
2021/10/15 07:49:55;;;;;;;26.50;24.80;;;10.10;81.80;;;;;;5025687;28;20468;-70
2021/10/15 07:52:24;;;;;;;32.83;30.33;;;10.30;81.80;;;;;;5028032;28;20480;-70
2021/10/15 07:54:51;;;;;;;27.40;25.80;;;10.40;81.20;;;;;;5023354;28;20521;-70
2021/10/15 07:57:18;;;;;;;28.00;26.23;;;10.60;80.70;;;;;;5028592;28;20463;-70
2021/10/15 07:59:45;;;;;;;29.40;27.30;;;10.70;80.30;;;;;;5027057;28;20976;-70
2021/10/15 08:02:12;;;;;;;29.47;27.60;;;10.80;80.00;;;;;;5026647;28;20999;-70
2021/10/15 08:04:39;;;;;;;29.20;27.30;;;10.90;79.50;;;;;;5021505;28;20483;-70
2021/10/15 08:07:06;;;;;;;31.00;28.43;;;10.90;79.40;;;;;;5024028;28;20563;-70
2021/10/15 08:09:34;;;;;;;28.70;26.50;;;11.00;79.20;;;;;;5024636;28;23494;-70
2021/10/15 08:12:01;;;;;;;29.47;27.47;;;11.10;78.60;;;;;;5028730;28;20476;-69
2021/10/15 08:14:28;;;;;;;28.33;26.43;;;11.20;78.20;;;;;;5027190;28;20448;-69
2021/10/15 08:16:55;;;;;;;30.83;28.60;;;11.20;78.20;;;;;;5026684;28;20644;-70
2021/10/15 08:19:22;;;;;;;30.00;28.20;;;11.20;78.30;;;;;;5025762;28;20479;-70
2021/10/15 08:21:49;;;;;;;29.60;27.80;;;11.30;78.00;;;;;;5025833;28;20476;-70
2021/10/15 08:24:16;;;;;;;31.20;29.20;;;11.40;77.70;;;;;;5022804;28;20915;-70
2021/10/15 08:26:44;;;;;;;29.37;27.37;;;11.50;78.30;;;;;;5026196;28;20456;-70
2021/10/15 08:29:11;;;;;;;30.43;28.23;;;11.60;78.40;;;;;;5025099;28;20448;-70
2021/10/15 08:31:38;;;;;;;29.53;27.43;;;11.80;77.50;;;;;;5023680;28;20510;-70
2021/10/15 08:34:09;;;;;;;29.23;27.33;;;11.90;76.10;;;;;;5025844;28;20456;-70
2021/10/15 08:36:38;;;;;;;29.20;27.40;;;11.90;75.60;;;;;;5027885;28;20535;-70
2021/10/15 08:39:06;;;;;;;31.80;29.67;;;11.90;74.80;;;;;;5024903;28;20464;-70
2021/10/15 08:41:35;;;;;;;31.57;29.40;;;12.10;74.70;;;;;;5027093;28;20475;-70
2021/10/15 08:44:03;;;;;;;34.73;32.10;;;12.20;74.30;;;;;;5024411;28;20476;-70
2021/10/15 08:46:31;;;;;;;34.47;31.93;;;12.10;74.50;;;;;;5027716;28;20463;-69
2021/10/15 08:48:58;;;;;;;34.50;32.20;;;12.20;75.00;;;;;;5026727;28;20788;-74
2021/10/15 08:51:25;;;;;;;33.30;30.57;;;12.20;75.50;;;;;;5024144;28;20488;-70
2021/10/15 08:53:54;;;;;;;32.33;30.23;;;12.30;74.50;;;;;;5025741;28;20539;-70
2021/10/15 08:56:21;;;;;;;34.60;32.30;;;12.30;73.90;;;;;;5026285;28;20470;-70
2021/10/15 08:58:57;;;;;;;34.67;32.20;;;12.30;73.70;;;;;;5022623;28;20447;-70
2021/10/15 09:01:28;;;;;;;34.67;32.17;;;12.40;73.10;;;;;;5024716;28;20484;-70
2021/10/15 09:03:59;;;;;;;32.30;30.13;;;12.50;73.00;;;;;;5022701;28;20562;-70
2021/10/15 09:06:26;;;;;;;34.83;32.37;;;12.50;73.30;;;;;;5021792;28;20460;-70
2021/10/15 09:08:54;;;;;;;34.47;31.60;;;12.50;72.90;;;;;;5023863;28;20840;-71
2021/10/15 09:11:26;;;;;;;32.13;29.83;;;12.50;72.50;;;;;;5026272;28;20574;-72
2021/10/15 09:14:07;;;;;;;33.53;31.30;;;12.50;73.00;;;;;;5024989;28;20535;-71
2021/10/15 09:17:08;;;;;;;33.10;30.93;;;12.50;73.40;;;;;;5029739;28;20510;-71
2021/10/15 09:19:40;;;;;;;32.77;30.57;;;12.70;72.80;;;;;;5016803;28;20543;-70
2021/10/15 09:22:26;;;;;;;33.77;31.30;;;12.70;72.60;;;;;;5021097;28;20492;-71
2021/10/15 09:24:55;;;;;;;33.63;31.07;;;12.70;72.60;;;;;;5020878;28;20483;-70
2021/10/15 09:27:32;;;;;;;33.80;31.40;;;12.80;72.50;;;;;;5023261;28;20467;-71
2021/10/15 09:30:01;;;;;;;32.83;30.70;;;12.80;72.80;;;;;;5022071;28;20539;-73
2021/10/15 09:32:32;;;;;;;36.37;33.37;;;12.90;72.70;;;;;;5024695;28;20517;-73
2021/10/15 09:35:01;;;;;;;31.73;29.73;;;13.10;72.40;;;;;;5019967;28;20460;-73
2021/10/15 09:37:30;;;;;;;34.37;31.87;;;13.20;71.90;;;;;;5020029;28;20467;-72
2021/10/15 09:40:05;;;;;;;31.93;29.87;;;13.20;71.50;;;;;;5023075;28;20452;-70
2021/10/15 09:42:34;;;;;;;33.53;31.10;;;13.20;71.70;;;;;;5020921;28;20467;-71
2021/10/15 09:45:05;;;;;;;33.00;30.80;;;13.20;71.80;;;;;;5021108;28;20479;-74
2021/10/15 09:47:33;;;;;;;33.03;30.93;;;13.40;72.00;;;;;;5022382;28;20464;-73
2021/10/15 09:50:04;;;;;;;32.33;29.87;;;13.50;71.30;;;;;;5021653;28;20459;-71
2021/10/15 09:52:37;;;;;;;32.80;30.80;;;13.60;70.90;;;;;;5018686;28;20483;-74
2021/10/15 09:55:16;;;;;;;36.13;33.30;;;13.70;70.80;;;;;;5018257;28;20464;-72
2021/10/15 09:57:44;;;;;;;31.67;29.40;;;13.90;70.20;;;;;;5020510;28;20812;-71
2021/10/15 10:00:14;;;;;;;32.67;30.37;;;14.10;69.60;;;;;;5018336;28;20455;-72
2021/10/15 10:02:41;;;;;;;32.80;30.37;;;14.10;69.20;;;;;;5018067;28;20914;-74
2021/10/15 10:05:13;;;;;;;33.37;31.00;;;14.20;69.00;;;;;;5017247;28;20476;-70
2021/10/15 10:07:41;;;;;;;32.87;30.17;;;14.60;67.90;;;;;;5015772;28;20567;-73
2021/10/15 10:10:11;;;;;;;31.93;29.70;;;14.60;68.10;;;;;;5023657;28;21865;-70
2021/10/15 10:12:40;;;;;;;30.33;28.33;;;14.60;68.10;;;;;;5023483;28;20489;-72
2021/10/15 10:15:09;;;;;;;32.70;30.50;;;14.90;67.60;;;;;;5023286;28;20849;-71
2021/10/15 10:17:41;;;;;;;31.93;29.73;;;15.10;66.70;;;;;;5020995;28;20468;-72
2021/10/15 10:20:14;;;;;;;29.83;27.90;;;15.00;67.10;;;;;;5030717;28;21140;-70
2021/10/15 10:22:58;;;;;;;30.20;28.30;;;15.10;67.70;;;;;;5026013;28;21264;-74
2021/10/15 10:25:27;;;;;;;30.60;28.80;;;15.10;67.90;;;;;;5028363;28;20837;-70
2021/10/15 10:27:57;;;;;;;30.10;28.10;;;15.10;67.90;;;;;;5031664;28;20580;-71
2021/10/15 10:30:42;;;;;;;28.87;26.97;;;15.20;67.30;;;;;;5030795;28;20491;-72
2021/10/15 10:33:09;;;;;;;28.50;26.80;;;15.30;66.30;;;;;;5024158;28;20454;-70
2021/10/15 10:35:38;;;;;;;29.40;27.50;;;15.30;65.80;;;;;;5028266;28;20464;-72
2021/10/15 10:38:32;;;;;;;29.60;27.63;;;15.30;65.90;;;;;;5024649;28;20452;-72
2021/10/15 10:41:17;;;;;;;28.60;26.80;;;15.40;65.80;;;;;;4999890;28;20469;-71
2021/10/15 10:44:09;;;;;;;29.30;27.40;;;15.50;66.10;;;;;;5002204;28;20487;-73
2021/10/15 10:46:37;;;;;;;29.40;27.50;;;15.60;66.40;;;;;;5020798;28;20519;-71
2021/10/15 10:49:20;;;;;;;28.87;27.20;;;15.70;65.40;;;;;;5023091;28;20558;-70
2021/10/15 10:52:17;;;;;;;29.37;27.50;;;15.90;65.30;;;;;;5027874;28;20502;-71
2021/10/15 10:54:47;;;;;;;28.60;26.90;;;16.00;64.70;;;;;;5003818;28;20550;-71
2021/10/15 10:57:27;;;;;;;29.73;27.80;;;16.00;65.30;;;;;;5032820;28;20459;-71
2021/10/15 11:00:16;;;;;;;30.03;27.70;;;16.10;65.20;;;;;;5023880;28;20459;-70
2021/10/15 11:02:47;;;;;;;30.37;28.47;;;16.20;64.30;;;;;;5021311;28;20450;-71
2021/10/15 11:05:33;;;;;;;30.27;28.43;;;16.10;63.60;;;;;;5028802;28;20539;-70
2021/10/15 11:08:32;;;;;;;31.20;28.97;;;16.00;63.80;;;;;;5022848;28;20452;-72
2021/10/15 11:11:38;;;;;;;30.17;28.13;;;16.00;64.40;;;;;;5026701;28;20472;-72
2021/10/15 11:14:05;;;;;;;29.93;27.80;;;16.10;63.90;;;;;;4966272;28;21163;-71
2021/10/15 11:16:32;;;;;;;32.20;29.90;;;16.10;64.20;;;;;;5016863;28;20464;-71
2021/10/15 11:18:59;;;;;;;30.00;27.80;;;16.20;63.70;;;;;;5021538;28;20552;-71
2021/10/15 11:21:26;;;;;;;31.40;29.30;;;16.20;63.50;;;;;;5025263;28;20479;-72
2021/10/15 11:24:10;;;;;;;31.10;28.80;;;16.10;64.10;;;;;;5024963;28;21103;-72
2021/10/15 11:26:37;;;;;;;31.77;29.70;;;16.10;63.70;;;;;;5024373;28;20555;-72
2021/10/15 11:29:04;;;;;;;30.57;28.33;;;16.00;64.50;;;;;;5027050;28;20453;-72
2021/10/15 11:31:31;;;;;;;31.00;29.03;;;16.10;64.90;;;;;;5027206;28;20503;-72
2021/10/15 11:34:08;;;;;;;29.73;27.73;;;16.20;64.20;;;;;;5025370;28;20531;-73
2021/10/15 11:36:35;;;;;;;30.47;28.37;;;16.30;63.40;;;;;;5020991;28;20861;-72
2021/10/15 11:39:04;;;;;;;30.10;28.10;;;16.40;63.10;;;;;;5022497;28;20517;-75
2021/10/15 11:41:31;;;;;;;29.97;27.97;;;16.40;63.60;;;;;;5024129;28;20479;-72
2021/10/15 11:43:58;;;;;;;29.60;27.60;;;16.50;63.70;;;;;;5020983;28;20873;-72
2021/10/15 11:46:33;;;;;;;31.07;28.60;;;16.60;63.80;;;;;;5023287;28;20479;-71
2021/10/15 11:48:59;;;;;;;29.13;27.23;;;16.80;63.20;;;;;;5021695;28;20472;-71
2021/10/15 11:51:28;;;;;;;28.60;26.83;;;16.80;62.80;;;;;;5019741;28;21596;-70
2021/10/15 11:53:58;;;;;;;28.73;26.90;;;16.70;61.30;;;;;;5022886;28;20456;-70
2021/10/15 11:56:28;;;;;;;27.37;25.77;;;16.80;61.30;;;;;;5019974;28;20460;-71
2021/10/15 11:58:58;;;;;;;28.40;26.60;;;16.80;61.10;;;;;;5023561;28;20506;-72
2021/10/15 12:01:27;;;;;;;28.83;27.10;;;16.50;62.10;;;;;;5021535;28;20499;-71
2021/10/15 12:03:55;;;;;;;28.77;27.17;;;16.40;62.40;;;;;;5022687;28;20483;-71
2021/10/15 12:06:28;;;;;;;27.67;26.13;;;16.50;62.10;;;;;;5023315;28;20452;-71
2021/10/15 12:09:01;;;;;;;31.67;29.60;;;16.60;61.60;;;;;;5021209;28;20491;-70
2021/10/15 12:11:47;;;;;;;27.63;25.93;;;16.80;61.50;;;;;;5022046;28;20480;-70
2021/10/15 12:14:17;;;;;;;29.63;27.93;;;16.60;61.90;;;;;;5025718;28;20543;-70
2021/10/15 12:16:53;;;;;;;29.60;27.63;;;16.50;62.80;;;;;;5021462;28;20865;-72
2021/10/15 12:19:23;;;;;;;26.80;25.20;;;16.80;62.90;;;;;;5020402;28;20980;-70
2021/10/15 12:21:52;;;;;;;28.13;26.43;;;16.90;62.20;;;;;;5020598;28;20537;-70
2021/10/15 12:24:27;;;;;;;29.27;27.47;;;17.20;61.60;;;;;;5003729;28;20484;-69
2021/10/15 12:27:11;;;;;;;26.60;25.10;;;17.30;61.40;;;;;;5000117;28;20461;-69
2021/10/15 12:29:40;;;;;;;29.40;27.50;;;17.20;61.70;;;;;;5002774;28;20475;-68
2021/10/15 12:32:10;;;;;;;26.77;25.17;;;17.10;61.80;;;;;;5004162;28;20475;-71
2021/10/15 12:34:53;;;;;;;27.50;25.80;;;16.90;62.00;;;;;;5003275;28;20458;-70
2021/10/15 12:37:32;;;;;;;27.23;25.43;;;16.70;62.50;;;;;;5003782;28;20471;-70
2021/10/15 12:40:14;;;;;;;28.60;26.83;;;16.80;62.90;;;;;;5003712;28;20472;-70
2021/10/15 12:42:43;;;;;;;28.40;26.70;;;16.90;62.30;;;;;;5007017;28;20486;-70
2021/10/15 12:45:12;;;;;;;27.93;26.33;;;16.70;63.00;;;;;;5003982;28;21019;-70
2021/10/15 12:47:40;;;;;;;27.43;25.93;;;16.70;62.90;;;;;;5022900;28;20459;-70
2021/10/15 12:50:08;;;;;;;28.37;26.47;;;16.80;63.30;;;;;;5017057;28;20941;-70
2021/10/15 12:52:37;;;;;;;28.47;26.87;;;16.80;63.20;;;;;;5023174;28;20492;-70
2021/10/15 12:55:14;;;;;;;27.90;26.13;;;16.90;62.50;;;;;;5020716;28;20452;-70
2021/10/15 12:57:43;;;;;;;27.23;25.63;;;16.90;62.60;;;;;;5016507;28;20455;-70